createdAt,value
2018-09-02T00:01:09.867Z,14.88
2018-09-02T00:02:20.012Z,14.84
2018-09-02T00:03:30.166Z,14.78
2018-09-02T00:04:40.297Z,14.84
2018-09-02T00:05:50.471Z,14.78
2018-09-02T00:07:00.647Z,14.8
2018-09-02T00:08:10.551Z,14.75
2018-09-02T00:09:20.692Z,14.72
2018-09-02T00:10:30.908Z,14.74
2018-09-02T00:11:41.121Z,14.74
2018-09-02T00:12:51.472Z,14.8
2018-09-02T00:14:01.607Z,14.72
2018-09-02T00:15:11.822Z,14.7
2018-09-02T00:16:22.027Z,14.7
2018-09-02T00:17:32.181Z,14.69
2018-09-02T00:18:42.432Z,14.74
2018-09-02T00:19:52.662Z,14.66
2018-09-02T00:21:02.877Z,14.72
2018-09-02T00:22:13.030Z,14.66
2018-09-02T00:23:23.452Z,14.66
2018-09-02T00:24:33.853Z,14.63
2018-09-02T00:25:44.208Z,14.69
2018-09-02T00:26:54.454Z,14.65
2018-09-02T00:28:04.733Z,14.65
2018-09-02T00:29:14.900Z,14.7
2018-09-02T00:30:25.142Z,14.74
2018-09-02T00:31:35.314Z,14.75
2018-09-02T00:32:45.187Z,14.74
2018-09-02T00:33:55.692Z,14.8
2018-09-02T00:35:06.186Z,14.75
2018-09-02T00:36:16.087Z,14.7
2018-09-02T00:37:26.235Z,14.72
2018-09-02T00:38:36.395Z,14.75
2018-09-02T00:39:46.525Z,14.72
2018-09-02T00:40:56.707Z,14.69
2018-09-02T00:42:06.585Z,14.72
2018-09-02T00:43:16.726Z,14.67
2018-09-02T00:44:26.680Z,14.7
2018-09-02T00:45:36.808Z,14.7
2018-09-02T00:46:46.990Z,14.77
2018-09-02T00:47:56.868Z,14.74
2018-09-02T00:49:07.052Z,14.72
2018-09-02T00:50:17.191Z,14.75
2018-09-02T00:51:27.310Z,14.72
2018-09-02T00:52:37.101Z,14.74
2018-09-02T00:53:47.271Z,14.75
2018-09-02T00:54:57.477Z,14.72
2018-09-02T00:56:07.649Z,14.75
2018-09-02T00:57:17.829Z,14.77
2018-09-02T00:58:28.166Z,14.78
2018-09-02T00:59:38.306Z,14.78
2018-09-02T01:00:48.199Z,14.77
2018-09-02T01:01:58.335Z,14.81
2018-09-02T01:03:08.395Z,14.8
2018-09-02T01:04:18.630Z,14.83
2018-09-02T01:05:28.821Z,14.81
2018-09-02T01:06:39.083Z,14.87
2018-09-02T01:07:49.286Z,14.83
2018-09-02T01:08:59.468Z,14.84
2018-09-02T01:10:09.777Z,14.8
2018-09-02T01:11:19.883Z,14.78
2018-09-02T01:12:30.006Z,14.81
2018-09-02T01:13:39.880Z,14.78
2018-09-02T01:14:50.011Z,14.83
2018-09-02T01:16:00.183Z,14.84
2018-09-02T01:17:10.308Z,14.81
2018-09-02T01:18:21.206Z,14.78
2018-09-02T01:19:31.452Z,14.78
2018-09-02T01:20:41.343Z,14.72
2018-09-02T01:21:51.558Z,14.72
2018-09-02T01:23:01.909Z,14.72
2018-09-02T01:24:12.696Z,14.74
2018-09-02T01:25:22.460Z,14.72
2018-09-02T01:26:32.633Z,14.72
2018-09-02T01:27:42.759Z,14.75
2018-09-02T01:28:52.384Z,14.77
2018-09-02T01:30:02.590Z,14.75
2018-09-02T01:31:12.734Z,14.7
2018-09-02T01:32:22.977Z,14.72
2018-09-02T01:33:32.962Z,14.65
2018-09-02T01:34:43.107Z,14.6
2018-09-02T01:35:53.236Z,14.66
2018-09-02T01:37:03.387Z,14.62
2018-09-02T01:38:13.747Z,14.66
2018-09-02T01:39:23.985Z,14.72
2018-09-02T01:40:35.146Z,14.56
2018-09-02T01:41:45.372Z,14.51
2018-09-02T01:42:55.542Z,14.54
2018-09-02T01:44:05.437Z,14.54
2018-09-02T01:45:15.518Z,14.59
2018-09-02T01:46:25.284Z,14.6
2018-09-02T01:47:35.442Z,14.56
2018-09-02T01:48:45.651Z,14.5
2018-09-02T01:49:55.836Z,14.51
2018-09-02T01:51:05.504Z,14.52
2018-09-02T01:52:15.654Z,14.52
2018-09-02T01:53:25.786Z,14.45
2018-09-02T01:54:36.147Z,14.39
2018-09-02T01:55:46.408Z,14.36
2018-09-02T01:56:56.661Z,14.36
2018-09-02T01:58:06.891Z,14.34
2018-09-02T01:59:17.158Z,14.31
2018-09-02T02:00:27.333Z,14.37
2018-09-02T02:01:37.521Z,14.36
2018-09-02T02:02:47.391Z,14.25
2018-09-02T02:03:57.567Z,14.25
2018-09-02T02:05:07.518Z,14.26
2018-09-02T02:06:17.646Z,14.26
2018-09-02T02:07:27.996Z,14.25
2018-09-02T02:08:38.160Z,14.22
2018-09-02T02:09:48.289Z,14.14
2018-09-02T02:10:58.408Z,14.19
2018-09-02T02:12:08.662Z,14.16
2018-09-02T02:13:18.534Z,14.13
2018-09-02T02:14:28.662Z,14.09
2018-09-02T02:15:38.810Z,14.1
2018-09-02T02:16:48.955Z,14.1
2018-09-02T02:17:59.080Z,14.1
2018-09-02T02:19:09.298Z,14.09
2018-09-02T02:20:19.495Z,14.09
2018-09-02T02:21:29.608Z,14.14
2018-09-02T02:22:39.740Z,14.13
2018-09-02T02:23:50.869Z,14
2018-09-02T02:25:01.041Z,14
2018-09-02T02:26:11.184Z,13.95
2018-09-02T02:27:21.488Z,14.06
2018-09-02T02:28:31.624Z,13.95
2018-09-02T02:29:41.770Z,14.02
2018-09-02T02:30:51.896Z,14.02
2018-09-02T02:32:02.035Z,14.02
2018-09-02T02:33:11.980Z,14.03
2018-09-02T02:34:22.124Z,14.02
2018-09-02T02:35:32.466Z,14.04
2018-09-02T02:36:42.582Z,14.02
2018-09-02T02:37:52.707Z,14.04
2018-09-02T02:39:02.849Z,13.99
2018-09-02T02:40:13.035Z,14.02
2018-09-02T02:41:22.908Z,14
2018-09-02T02:42:32.768Z,14.03
2018-09-02T02:43:42.661Z,14
2018-09-02T02:44:52.848Z,14.07
2018-09-02T02:46:02.389Z,14.07
2018-09-02T02:47:12.275Z,14.02
2018-09-02T02:48:22.533Z,14.03
2018-09-02T02:49:32.757Z,14.02
2018-09-02T02:50:43.065Z,14.03
2018-09-02T02:51:53.231Z,14.02
2018-09-02T02:53:03.412Z,14.09
2018-09-02T02:54:13.563Z,14.06
2018-09-02T02:55:23.192Z,14.06
2018-09-02T02:56:33.213Z,14.09
2018-09-02T02:57:43.603Z,14.09
2018-09-02T02:58:53.599Z,14.13
2018-09-02T03:00:03.763Z,14.19
2018-09-02T03:01:13.969Z,14.1
2018-09-02T03:02:24.100Z,14.1
2018-09-02T03:03:34.039Z,14.14
2018-09-02T03:04:44.248Z,14.09
2018-09-02T03:05:54.650Z,14.22
2018-09-02T03:07:04.791Z,14.19
2018-09-02T03:08:14.933Z,14.13
2018-09-02T03:09:25.159Z,14.14
2018-09-02T03:10:35.368Z,14.14
2018-09-02T03:11:45.664Z,14.1
2018-09-02T03:12:55.842Z,14.18
2018-09-02T03:14:05.982Z,14.1
2018-09-02T03:15:16.283Z,14.1
2018-09-02T03:16:26.468Z,14.11
2018-09-02T03:17:37.659Z,14.04
2018-09-02T03:18:47.934Z,14.04
2018-09-02T03:19:57.799Z,14.09
2018-09-02T03:21:07.938Z,14.14
2018-09-02T03:22:18.271Z,14.09
2018-09-02T03:23:28.399Z,14.11
2018-09-02T03:24:38.257Z,14.11
2018-09-02T03:25:48.403Z,14.18
2018-09-02T03:26:58.381Z,14.13
2018-09-02T03:28:08.537Z,14.16
2018-09-02T03:29:18.694Z,14.21
2018-09-02T03:30:28.814Z,14.19
2018-09-02T03:31:38.684Z,14.21
2018-09-02T03:32:48.806Z,14.24
2018-09-02T03:33:58.973Z,14.21
2018-09-02T03:35:09.129Z,14.21
2018-09-02T03:36:19.348Z,14.19
2018-09-02T03:37:29.244Z,14.18
2018-09-02T03:38:39.386Z,14.13
2018-09-02T03:39:49.570Z,14.18
2018-09-02T03:40:59.439Z,14.11
2018-09-02T03:42:09.585Z,14.13
2018-09-02T03:43:19.768Z,14.09
2018-09-02T03:44:29.884Z,14.21
2018-09-02T03:45:40.070Z,14.13
2018-09-02T03:46:50.294Z,14.16
2018-09-02T03:48:01.521Z,14.13
2018-09-02T03:49:11.705Z,14.09
2018-09-02T03:50:21.738Z,13.96
2018-09-02T03:51:31.651Z,14.09
2018-09-02T03:52:41.795Z,13.96
2018-09-02T03:53:52.038Z,13.95
2018-09-02T03:55:01.986Z,13.99
2018-09-02T03:56:11.801Z,13.96
2018-09-02T03:57:21.954Z,14.03
2018-09-02T03:58:32.273Z,14.02
2018-09-02T03:59:42.412Z,14.06
2018-09-02T04:00:52.595Z,13.94
2018-09-02T04:02:02.734Z,13.92
2018-09-02T04:03:12.939Z,13.91
2018-09-02T04:04:23.086Z,13.92
2018-09-02T04:05:33.369Z,13.95
2018-09-02T04:06:43.592Z,13.91
2018-09-02T04:07:53.748Z,13.92
2018-09-02T04:09:03.962Z,13.81
2018-09-02T04:10:14.109Z,13.92
2018-09-02T04:11:24.234Z,13.88
2018-09-02T04:12:34.844Z,13.85
2018-09-02T04:13:45.210Z,13.89
2018-09-02T04:14:55.190Z,13.91
2018-09-02T04:16:05.339Z,13.88
2018-09-02T04:17:15.601Z,13.85
2018-09-02T04:18:25.805Z,13.85
2018-09-02T04:19:35.967Z,13.82
2018-09-02T04:20:47.053Z,13.88
2018-09-02T04:21:57.223Z,13.92
2018-09-02T04:23:07.356Z,13.89
2018-09-02T04:24:17.480Z,13.88
2018-09-02T04:25:27.689Z,13.91
2018-09-02T04:26:37.801Z,13.92
2018-09-02T04:27:47.688Z,13.79
2018-09-02T04:28:57.872Z,14
2018-09-02T04:30:07.999Z,13.88
2018-09-02T04:31:18.167Z,13.89
2018-09-02T04:32:28.335Z,13.88
2018-09-02T04:33:38.611Z,13.89
2018-09-02T04:34:49.273Z,13.89
2018-09-02T04:35:59.427Z,13.91
2018-09-02T04:37:09.412Z,13.91
2018-09-02T04:38:19.780Z,13.96
2018-09-02T04:39:29.547Z,14.02
2018-09-02T04:40:39.593Z,14
2018-09-02T04:41:49.752Z,13.96
2018-09-02T04:42:59.972Z,14.04
2018-09-02T04:44:10.249Z,14.02
2018-09-02T04:45:20.791Z,14
2018-09-02T04:46:31.006Z,14.04
2018-09-02T04:47:40.877Z,13.99
2018-09-02T04:48:51.045Z,14.04
2018-09-02T04:50:01.328Z,14.06
2018-09-02T04:51:11.524Z,14.06
2018-09-02T04:52:21.734Z,13.99
2018-09-02T04:53:31.916Z,14.04
2018-09-02T04:54:42.064Z,14.03
2018-09-02T04:55:52.419Z,13.91
2018-09-02T04:57:02.720Z,13.89
2018-09-02T04:58:13.133Z,13.99
2018-09-02T04:59:23.270Z,13.94
2018-09-02T05:00:33.731Z,13.86
2018-09-02T05:01:43.981Z,13.99
2018-09-02T05:02:54.211Z,13.94
2018-09-02T05:04:04.570Z,13.91
2018-09-02T05:05:14.685Z,14.02
2018-09-02T05:06:24.832Z,14.03
2018-09-02T05:07:36.111Z,13.91
2018-09-02T05:08:46.259Z,14
2018-09-02T05:09:56.427Z,14.02
2018-09-02T05:11:06.582Z,13.94
2018-09-02T05:12:16.717Z,13.92
2018-09-02T05:13:26.849Z,14.02
2018-09-02T05:14:36.994Z,13.94
2018-09-02T05:15:47.153Z,14.03
2018-09-02T05:16:57.629Z,14.02
2018-09-02T05:18:07.543Z,14.02
2018-09-02T05:19:17.859Z,13.91
2018-09-02T05:20:28.010Z,13.94
2018-09-02T05:21:38.148Z,13.88
2018-09-02T05:22:49.248Z,13.94
2018-09-02T05:23:59.624Z,13.92
2018-09-02T05:25:09.793Z,13.84
2018-09-02T05:26:20.183Z,13.82
2018-09-02T05:27:30.444Z,13.77
2018-09-02T05:28:40.540Z,13.74
2018-09-02T05:29:50.881Z,13.66
2018-09-02T05:31:01.104Z,13.67
2018-09-02T05:32:11.369Z,13.63
2018-09-02T05:33:21.509Z,13.63
2018-09-02T05:34:31.740Z,13.58
2018-09-02T05:35:41.905Z,13.55
2018-09-02T05:36:52.175Z,13.67
2018-09-02T05:38:02.429Z,13.71
2018-09-02T05:39:12.715Z,13.67
2018-09-02T05:40:22.896Z,13.76
2018-09-02T05:41:33.099Z,13.76
2018-09-02T05:42:43.254Z,13.71
2018-09-02T05:43:52.970Z,13.71
2018-09-02T05:45:03.078Z,13.73
2018-09-02T05:46:13.266Z,13.73
2018-09-02T05:47:23.394Z,13.79
2018-09-02T05:48:33.518Z,13.81
2018-09-02T05:49:43.666Z,13.81
2018-09-02T05:50:53.863Z,13.77
2018-09-02T05:52:04.023Z,13.82
2018-09-02T05:53:14.320Z,13.82
2018-09-02T05:54:24.455Z,13.84
2018-09-02T05:55:34.364Z,13.79
2018-09-02T05:56:44.286Z,13.94
2018-09-02T05:57:54.424Z,13.91
2018-09-02T05:59:04.565Z,13.94
2018-09-02T06:00:14.713Z,14
2018-09-02T06:01:24.576Z,13.96
2018-09-02T06:02:34.765Z,14.06
2018-09-02T06:03:44.423Z,14.03
2018-09-02T06:04:54.560Z,14.16
2018-09-02T06:06:04.827Z,14.16
2018-09-02T06:07:15.015Z,14.09
2018-09-02T06:08:25.287Z,14.16
2018-09-02T06:09:35.479Z,14.22
2018-09-02T06:10:45.684Z,14.21
2018-09-02T06:11:55.833Z,14.26
2018-09-02T06:13:06.098Z,14.26
2018-09-02T06:14:16.243Z,14.28
2018-09-02T06:15:26.394Z,14.28
2018-09-02T06:16:36.570Z,14.26
2018-09-02T06:17:46.487Z,14.37
2018-09-02T06:18:56.655Z,14.37
2018-09-02T06:20:06.800Z,14.56
2018-09-02T06:21:16.801Z,14.52
2018-09-02T06:22:27.017Z,14.54
2018-09-02T06:23:36.892Z,14.58
2018-09-02T06:24:47.045Z,14.63
2018-09-02T06:25:56.942Z,14.63
2018-09-02T06:27:07.141Z,14.77
2018-09-02T06:28:17.044Z,14.83
2018-09-02T06:29:27.259Z,14.88
2018-09-02T06:30:37.495Z,14.99
2018-09-02T06:31:47.753Z,14.99
2018-09-02T06:32:57.459Z,15.02
2018-09-02T06:34:07.814Z,15.13
2018-09-02T06:35:17.685Z,15.25
2018-09-02T06:36:27.902Z,15.17
2018-09-02T06:37:38.040Z,15.32
2018-09-02T06:38:48.183Z,15.25
2018-09-02T06:39:58.333Z,15.33
2018-09-02T06:41:08.240Z,15.46
2018-09-02T06:42:18.420Z,15.55
2018-09-02T06:43:28.560Z,15.58
2018-09-02T06:44:38.727Z,15.55
2018-09-02T06:45:49.208Z,15.69
2018-09-02T06:46:59.686Z,15.72
2018-09-02T06:48:09.594Z,15.79
2018-09-02T06:49:19.801Z,15.79
2018-09-02T06:50:29.976Z,15.79
2018-09-02T06:51:40.142Z,15.79
2018-09-02T06:52:50.277Z,15.88
2018-09-02T06:54:00.445Z,15.78
2018-09-02T06:55:10.607Z,15.94
2018-09-02T06:56:20.762Z,15.88
2018-09-02T06:57:30.927Z,15.82
2018-09-02T06:58:41.310Z,15.98
2018-09-02T06:59:51.948Z,15.94
2018-09-02T07:01:02.111Z,15.98
2018-09-02T07:02:12.267Z,16.02
2018-09-02T07:03:22.415Z,16.1
2018-09-02T07:04:32.550Z,16.1
2018-09-02T07:05:42.690Z,16.19
2018-09-02T07:06:52.847Z,16.09
2018-09-02T07:08:03.019Z,16.16
2018-09-02T07:09:13.300Z,16.07
2018-09-02T07:10:23.519Z,16.19
2018-09-02T07:11:33.734Z,16.14
2018-09-02T07:12:43.978Z,16.17
2018-09-02T07:13:54.197Z,16.27
2018-09-02T07:15:04.512Z,16.28
2018-09-02T07:16:14.225Z,16.27
2018-09-02T07:17:24.416Z,16.42
2018-09-02T07:18:34.608Z,16.35
2018-09-02T07:19:44.745Z,16.43
2018-09-02T07:20:54.890Z,16.28
2018-09-02T07:22:05.041Z,16.36
2018-09-02T07:23:15.162Z,16.39
2018-09-02T07:24:25.319Z,16.43
2018-09-02T07:25:35.476Z,16.38
2018-09-02T07:26:45.847Z,16.28
2018-09-02T07:27:55.988Z,16.38
2018-09-02T07:29:06.224Z,16.35
2018-09-02T07:30:16.350Z,16.39
2018-09-02T07:31:26.773Z,16.36
2018-09-02T07:32:37.245Z,16.47
2018-09-02T07:33:47.728Z,16.43
2018-09-02T07:34:57.362Z,16.44
2018-09-02T07:36:07.754Z,16.51
2018-09-02T07:37:17.945Z,16.47
2018-09-02T07:38:28.094Z,16.43
2018-09-02T07:39:38.268Z,16.42
2018-09-02T07:40:48.074Z,16.44
2018-09-02T07:41:57.972Z,16.39
2018-09-02T07:43:08.137Z,16.38
2018-09-02T07:44:18.518Z,16.49
2018-09-02T07:45:28.798Z,16.5
2018-09-02T07:46:38.790Z,16.61
2018-09-02T07:47:48.930Z,16.57
2018-09-02T07:48:59.102Z,16.64
2018-09-02T07:50:09.368Z,16.65
2018-09-02T07:51:19.510Z,16.56
2018-09-02T07:52:29.374Z,16.53
2018-09-02T07:53:39.537Z,16.62
2018-09-02T07:54:49.686Z,16.69
2018-09-02T07:55:59.884Z,16.72
2018-09-02T07:57:10.056Z,16.72
2018-09-02T07:58:19.843Z,16.68
2018-09-02T07:59:29.980Z,16.87
2018-09-02T08:00:40.206Z,16.96
2018-09-02T08:01:50.384Z,17.06
2018-09-02T08:03:00.458Z,17.23
2018-09-02T08:04:10.619Z,17.31
2018-09-02T08:05:20.753Z,17.39
2018-09-02T08:06:30.730Z,17.61
2018-09-02T08:07:40.703Z,17.6
2018-09-02T08:08:50.947Z,17.6
2018-09-02T08:10:01.171Z,17.67
2018-09-02T08:11:11.321Z,17.67
2018-09-02T08:12:21.745Z,17.62
2018-09-02T08:13:32.423Z,17.64
2018-09-02T08:14:42.598Z,17.68
2018-09-02T08:15:52.813Z,17.73
2018-09-02T08:17:02.967Z,17.83
2018-09-02T08:18:12.750Z,17.83
2018-09-02T08:19:22.788Z,17.87
2018-09-02T08:20:33.031Z,17.87
2018-09-02T08:21:43.202Z,17.94
2018-09-02T08:22:53.580Z,17.97
2018-09-02T08:24:03.772Z,17.95
2018-09-02T08:25:13.958Z,17.95
2018-09-02T08:26:24.097Z,17.92
2018-09-02T08:27:34.738Z,17.91
2018-09-02T08:28:44.729Z,17.91
2018-09-02T08:29:54.732Z,17.86
2018-09-02T08:31:04.644Z,17.91
2018-09-02T08:32:14.857Z,17.94
2018-09-02T08:33:25.090Z,17.8
2018-09-02T08:34:35.229Z,17.86
2018-09-02T08:35:45.447Z,17.91
2018-09-02T08:36:55.693Z,17.86
2018-09-02T08:38:05.927Z,17.7
2018-09-02T08:39:16.635Z,17.72
2018-09-02T08:40:27.057Z,17.7
2018-09-02T08:41:37.235Z,17.58
2018-09-02T08:42:47.115Z,17.62
2018-09-02T08:43:57.317Z,17.7
2018-09-02T08:45:07.690Z,17.75
2018-09-02T08:46:17.918Z,17.72
2018-09-02T08:47:28.155Z,17.73
2018-09-02T08:48:38.372Z,17.73
2018-09-02T08:49:48.574Z,17.85
2018-09-02T08:50:58.738Z,17.87
2018-09-02T08:52:09.107Z,18
2018-09-02T08:53:19.318Z,17.94
2018-09-02T08:54:29.488Z,17.98
2018-09-02T08:55:39.620Z,18.1
2018-09-02T08:56:50.025Z,18.07
2018-09-02T08:58:00.239Z,18.07
2018-09-02T08:59:10.448Z,18.1
2018-09-02T09:00:20.586Z,18.07
2018-09-02T09:01:30.817Z,18.01
2018-09-02T09:02:41.258Z,18.02
2018-09-02T09:03:51.174Z,18.09
2018-09-02T09:05:01.330Z,18
2018-09-02T09:06:11.271Z,17.98
2018-09-02T09:07:21.631Z,17.98
2018-09-02T09:08:33.393Z,17.85
2018-09-02T09:09:44.175Z,17.72
2018-09-02T09:10:54.592Z,17.61
2018-09-02T09:12:04.540Z,17.57
2018-09-02T09:13:14.749Z,17.57
2018-09-02T09:14:24.901Z,17.5
2018-09-02T09:15:35.096Z,17.58
2018-09-02T09:16:45.892Z,17.6
2018-09-02T09:17:56.650Z,17.54
2018-09-02T09:19:07.803Z,17.6
2018-09-02T09:20:17.983Z,17.58
2018-09-02T09:21:28.249Z,17.62
2018-09-02T09:22:39.042Z,17.64
2018-09-02T09:23:49.512Z,17.64
2018-09-02T09:24:59.855Z,17.61
2018-09-02T09:26:10.075Z,17.61
2018-09-02T09:27:20.247Z,17.61
2018-09-02T09:28:30.451Z,17.58
2018-09-02T09:29:40.492Z,17.61
2018-09-02T09:30:50.713Z,17.65
2018-09-02T09:32:01.143Z,17.65
2018-09-02T09:33:11.365Z,17.67
2018-09-02T09:34:21.554Z,17.64
2018-09-02T09:35:31.937Z,17.65
2018-09-02T09:36:42.154Z,17.65
2018-09-02T09:37:52.283Z,17.67
2018-09-02T09:39:02.199Z,17.65
2018-09-02T09:40:12.368Z,17.75
2018-09-02T09:41:22.265Z,17.72
2018-09-02T09:42:32.419Z,17.73
2018-09-02T09:43:42.706Z,17.62
2018-09-02T09:44:52.851Z,17.65
2018-09-02T09:46:02.833Z,17.76
2018-09-02T09:47:13.332Z,17.68
2018-09-02T09:48:23.508Z,17.75
2018-09-02T09:49:33.879Z,17.7
2018-09-02T09:50:44.057Z,17.7
2018-09-02T09:51:54.953Z,17.83
2018-09-02T09:53:05.147Z,17.7
2018-09-02T09:54:15.133Z,17.86
2018-09-02T09:55:25.477Z,17.86
2018-09-02T09:56:35.910Z,17.73
2018-09-02T09:57:46.301Z,17.75
2018-09-02T09:58:56.555Z,17.64
2018-09-02T10:00:06.864Z,17.64
2018-09-02T10:01:17.056Z,17.62
2018-09-02T10:02:27.218Z,17.58
2018-09-02T10:03:37.489Z,17.62
2018-09-02T10:04:47.815Z,17.58
2018-09-02T10:05:57.713Z,17.55
2018-09-02T10:07:07.894Z,17.54
2018-09-02T10:08:18.106Z,17.61
2018-09-02T10:09:28.470Z,17.5
2018-09-02T10:10:39.004Z,17.42
2018-09-02T10:11:49.354Z,17.47
2018-09-02T10:12:59.976Z,17.43
2018-09-02T10:14:10.154Z,17.39
2018-09-02T10:15:20.358Z,17.35
2018-09-02T10:16:30.501Z,17.28
2018-09-02T10:17:40.704Z,17.23
2018-09-02T10:18:50.903Z,17.27
2018-09-02T10:20:01.062Z,17.3
2018-09-02T10:21:11.308Z,17.32
2018-09-02T10:22:21.578Z,17.3
2018-09-02T10:23:31.528Z,17.21
2018-09-02T10:24:41.923Z,17.2
2018-09-02T10:25:52.063Z,17.23
2018-09-02T10:27:02.033Z,17.16
2018-09-02T10:28:12.181Z,17.06
2018-09-02T10:29:22.360Z,17.06
2018-09-02T10:30:32.345Z,17.08
2018-09-02T10:31:42.332Z,17.08
2018-09-02T10:32:52.523Z,17.11
2018-09-02T10:34:02.801Z,17.14
2018-09-02T10:35:13.035Z,17.08
2018-09-02T10:36:23.283Z,17.14
2018-09-02T10:37:33.492Z,17.06
2018-09-02T10:38:43.715Z,17.14
2018-09-02T10:39:53.960Z,17.16
2018-09-02T10:41:04.373Z,17.14
2018-09-02T10:42:15.352Z,17.04
2018-09-02T10:43:26.568Z,17.14
2018-09-02T10:44:36.802Z,17.2
2018-09-02T10:45:47.012Z,17.14
2018-09-02T10:46:57.238Z,17.23
2018-09-02T10:48:07.446Z,17.17
2018-09-02T10:49:17.671Z,17.21
2018-09-02T10:50:27.858Z,17.19
2018-09-02T10:51:38.059Z,17.11
2018-09-02T10:52:48.275Z,17.04
2018-09-02T10:53:58.558Z,17.06
2018-09-02T10:55:08.734Z,17.04
2018-09-02T10:56:18.903Z,17.05
2018-09-02T10:57:29.106Z,16.98
2018-09-02T10:58:39.352Z,16.87
2018-09-02T10:59:49.852Z,16.87
2018-09-02T11:01:00.079Z,16.83
2018-09-02T11:02:11.264Z,16.84
2018-09-02T11:03:21.287Z,16.83
2018-09-02T11:04:31.538Z,16.84
2018-09-02T11:05:41.744Z,16.75
2018-09-02T11:06:51.960Z,16.84
2018-09-02T11:08:02.140Z,16.84
2018-09-02T11:09:12.386Z,16.91
2018-09-02T11:10:22.194Z,16.87
2018-09-02T11:11:32.394Z,16.93
2018-09-02T11:12:42.673Z,16.93
2018-09-02T11:13:53.511Z,16.94
2018-09-02T11:15:04.623Z,16.94
2018-09-02T11:16:15.043Z,17.02
2018-09-02T11:17:25.266Z,16.99
2018-09-02T11:18:35.459Z,17.05
2018-09-02T11:19:45.658Z,17.08
2018-09-02T11:20:55.869Z,17.11
2018-09-02T11:22:06.084Z,17.05
2018-09-02T11:23:16.302Z,17.05
2018-09-02T11:24:27.577Z,16.98
2018-09-02T11:25:37.484Z,17.01
2018-09-02T11:26:47.708Z,16.96
2018-09-02T11:27:57.882Z,17.02
2018-09-02T11:29:07.780Z,16.98
2018-09-02T11:30:17.701Z,16.99
2018-09-02T11:31:29.072Z,16.89
2018-09-02T11:32:39.343Z,16.87
2018-09-02T11:33:49.726Z,16.84
2018-09-02T11:35:00.244Z,16.84
2018-09-02T11:36:10.478Z,16.69
2018-09-02T11:37:20.719Z,16.69
2018-09-02T11:38:30.898Z,16.74
2018-09-02T11:39:41.081Z,16.76
2018-09-02T11:40:51.318Z,16.74
2018-09-02T11:42:01.548Z,16.69
2018-09-02T11:43:11.857Z,16.59
2018-09-02T11:44:22.032Z,16.56
2018-09-02T11:45:32.223Z,16.53
2018-09-02T11:46:42.714Z,16.47
2018-09-02T11:47:53.146Z,16.46
2018-09-02T11:49:03.427Z,16.42
2018-09-02T11:50:14.048Z,16.42
2018-09-02T11:51:24.449Z,16.43
2018-09-02T11:52:34.656Z,16.42
2018-09-02T11:53:44.890Z,16.31
2018-09-02T11:54:55.099Z,16.32
2018-09-02T11:56:05.278Z,16.44
2018-09-02T11:57:15.481Z,16.32
2018-09-02T11:58:25.930Z,16.39
2018-09-02T11:59:36.260Z,16.35
2018-09-02T12:00:46.527Z,16.31
2018-09-02T12:01:56.764Z,16.21
2018-09-02T12:03:06.996Z,16.21
2018-09-02T12:04:17.208Z,16.27
2018-09-02T12:05:27.419Z,16.28
2018-09-02T12:06:37.396Z,16.29
2018-09-02T12:07:47.634Z,16.21
2018-09-02T12:08:57.202Z,16.28
2018-09-02T12:10:07.393Z,16.2
2018-09-02T12:11:17.586Z,16.28
2018-09-02T12:12:27.851Z,16.25
2018-09-02T12:13:38.074Z,16.24
2018-09-02T12:14:47.788Z,16.28
2018-09-02T12:15:58.391Z,16.19
2018-09-02T12:17:08.606Z,16.27
2018-09-02T12:18:18.812Z,16.27
2018-09-02T12:19:29.142Z,16.28
2018-09-02T12:20:38.999Z,16.24
2018-09-02T12:21:49.151Z,16.21
2018-09-02T12:22:59.353Z,16.31
2018-09-02T12:24:09.292Z,16.34
2018-09-02T12:25:19.479Z,16.34
2018-09-02T12:26:29.724Z,16.35
2018-09-02T12:27:39.983Z,16.42
2018-09-02T12:28:50.221Z,16.44
2018-09-02T12:30:01.600Z,16.42
2018-09-02T12:31:11.841Z,16.42
2018-09-02T12:32:22.110Z,16.36
2018-09-02T12:33:32.558Z,16.39
2018-09-02T12:34:42.766Z,16.47
2018-09-02T12:35:53.034Z,16.49
2018-09-02T12:37:03.336Z,16.57
2018-09-02T12:38:13.560Z,16.53
2018-09-02T12:39:23.745Z,16.54
2018-09-02T12:40:34.169Z,16.61
2018-09-02T12:41:44.376Z,16.53
2018-09-02T12:42:54.542Z,16.56
2018-09-02T12:44:04.716Z,16.5
2018-09-02T12:45:14.926Z,16.51
2018-09-02T12:46:25.113Z,16.54
2018-09-02T12:47:35.421Z,16.65
2018-09-02T12:48:45.873Z,16.64
2018-09-02T12:49:56.130Z,16.65
2018-09-02T12:51:06.077Z,16.83
2018-09-02T12:52:16.062Z,16.72
2018-09-02T12:53:27.252Z,16.76
2018-09-02T12:54:37.499Z,16.69
2018-09-02T12:55:47.812Z,16.86
2018-09-02T12:56:58.373Z,16.71
2018-09-02T12:58:08.582Z,16.79
2018-09-02T12:59:18.805Z,16.83
2018-09-02T13:00:29.144Z,16.8
2018-09-02T13:01:39.164Z,16.91
2018-09-02T13:02:49.356Z,16.87
2018-09-02T13:03:59.696Z,16.87
2018-09-02T13:05:10.288Z,16.9
2018-09-02T13:06:20.498Z,16.91
2018-09-02T13:07:30.749Z,16.99
2018-09-02T13:08:40.829Z,16.98
2018-09-02T13:09:51.085Z,16.94
2018-09-02T13:11:01.369Z,17.02
2018-09-02T13:12:11.572Z,17.01
2018-09-02T13:13:21.885Z,17.01
2018-09-02T13:14:32.090Z,17.04
2018-09-02T13:15:42.342Z,16.99
2018-09-02T13:16:52.812Z,17.04
2018-09-02T13:18:03.153Z,17.02
2018-09-02T13:19:13.211Z,16.99
2018-09-02T13:20:23.754Z,17.04
2018-09-02T13:21:33.985Z,17.01
2018-09-02T13:22:44.281Z,17.02
2018-09-02T13:23:54.793Z,16.96
2018-09-02T13:25:05.399Z,16.96
2018-09-02T13:26:15.829Z,17.02
2018-09-02T13:27:26.098Z,16.94
2018-09-02T13:28:36.290Z,16.94
2018-09-02T13:29:46.485Z,16.98
2018-09-02T13:30:56.664Z,16.99
2018-09-02T13:32:06.864Z,16.96
2018-09-02T13:33:17.090Z,16.91
2018-09-02T13:34:27.319Z,16.96
2018-09-02T13:35:37.533Z,16.87
2018-09-02T13:36:47.740Z,16.91
2018-09-02T13:37:57.970Z,16.93
2018-09-02T13:39:08.072Z,16.87
2018-09-02T13:40:18.170Z,16.89
2018-09-02T13:41:28.903Z,16.93
2018-09-02T13:42:38.723Z,16.94
2018-09-02T13:43:48.945Z,16.93
2018-09-02T13:44:59.330Z,16.93
2018-09-02T13:46:09.619Z,16.9
2018-09-02T13:47:19.807Z,16.9
2018-09-02T13:48:30.007Z,16.87
2018-09-02T13:49:40.544Z,16.91
2018-09-02T13:50:50.803Z,16.93
2018-09-02T13:52:01.260Z,16.9
2018-09-02T13:53:11.296Z,16.89
2018-09-02T13:54:21.840Z,16.91
2018-09-02T13:55:32.385Z,16.89
2018-09-02T13:56:42.630Z,16.87
2018-09-02T13:57:52.823Z,16.91
2018-09-02T13:59:02.911Z,16.9
2018-09-02T14:00:13.215Z,16.9
2018-09-02T14:01:23.185Z,16.9
2018-09-02T14:02:33.243Z,16.96
2018-09-02T14:03:43.472Z,16.94
2018-09-02T14:04:53.664Z,16.93
2018-09-02T14:06:03.882Z,16.91
2018-09-02T14:07:14.100Z,16.94
2018-09-02T14:08:24.507Z,16.96
2018-09-02T14:09:34.246Z,16.91
2018-09-02T14:10:44.615Z,17.01
2018-09-02T14:11:54.635Z,16.98
2018-09-02T14:13:04.538Z,17.02
2018-09-02T14:14:14.530Z,17.04
2018-09-02T14:15:24.752Z,17.08
2018-09-02T14:16:34.801Z,17.05
2018-09-02T14:17:44.952Z,16.98
2018-09-02T14:18:55.588Z,16.99
2018-09-02T14:20:05.886Z,17.09
2018-09-02T14:21:16.658Z,17.05
2018-09-02T14:22:26.902Z,17.04
2018-09-02T14:23:37.082Z,17.09
2018-09-02T14:24:47.729Z,17.05
2018-09-02T14:25:57.939Z,17.05
2018-09-02T14:27:08.112Z,17.12
2018-09-02T14:28:18.452Z,16.98
2018-09-02T14:29:28.655Z,17.12
2018-09-02T14:30:38.852Z,17.04
2018-09-02T14:31:49.114Z,17.16
2018-09-02T14:32:59.084Z,17.12
2018-09-02T14:34:09.246Z,17.05
2018-09-02T14:35:19.479Z,17.09
2018-09-02T14:36:29.712Z,17.08
2018-09-02T14:37:40.180Z,17.11
2018-09-02T14:38:50.398Z,17.08
2018-09-02T14:40:00.633Z,17.08
2018-09-02T14:41:10.562Z,17.14
2018-09-02T14:42:20.763Z,17.16
2018-09-02T14:43:30.994Z,17.09
2018-09-02T14:44:41.139Z,17.16
2018-09-02T14:45:51.317Z,17.14
2018-09-02T14:47:01.513Z,17.19
2018-09-02T14:48:12.786Z,17.24
2018-09-02T14:49:23.035Z,17.21
2018-09-02T14:50:33.237Z,17.17
2018-09-02T14:51:43.738Z,17.11
2018-09-02T14:52:53.966Z,17.19
2018-09-02T14:54:04.234Z,17.16
2018-09-02T14:55:14.451Z,17.11
2018-09-02T14:56:24.702Z,17.23
2018-09-02T14:57:34.906Z,17.2
2018-09-02T14:58:45.144Z,17.21
2018-09-02T14:59:55.408Z,17.09
2018-09-02T15:01:06.060Z,17.2
2018-09-02T15:02:17.170Z,17.21
2018-09-02T15:03:27.988Z,17.06
2018-09-02T15:04:38.914Z,17.12
2018-09-02T15:05:49.274Z,17.12
2018-09-02T15:06:59.671Z,17.17
2018-09-02T15:08:10.018Z,17.14